sensor_id;sensor_type;location;lat;lon;timestamp;pressure;altitude;pressure_sealevel;temperature;humidity
9035;BME280;4552;43.422;24.592;2022-07-18T00:01:29;100504.03;;;20.78;38.40
9035;BME280;4552;43.422;24.592;2022-07-18T00:03:57;100500.28;;;20.63;38.31
9035;BME280;4552;43.422;24.592;2022-07-18T00:06:24;100505.53;;;20.65;38.12
9035;BME280;4552;43.422;24.592;2022-07-18T00:08:51;100504.41;;;20.89;38.51
9035;BME280;4552;43.422;24.592;2022-07-18T00:11:19;100499.34;;;20.83;38.71
9035;BME280;4552;43.422;24.592;2022-07-18T00:13:48;100499.50;;;20.80;38.43
9035;BME280;4552;43.422;24.592;2022-07-18T00:16:16;100497.34;;;20.69;38.52
9035;BME280;4552;43.422;24.592;2022-07-18T00:18:45;100494.78;;;20.47;38.77
9035;BME280;4552;43.422;24.592;2022-07-18T00:21:12;100493.53;;;20.36;39.14
9035;BME280;4552;43.422;24.592;2022-07-18T00:23:39;100500.53;;;20.38;38.92
9035;BME280;4552;43.422;24.592;2022-07-18T00:26:06;100517.50;;;20.54;39.44
9035;BME280;4552;43.422;24.592;2022-07-18T00:28:34;100520.97;;;20.56;39.81
9035;BME280;4552;43.422;24.592;2022-07-18T00:31:01;100507.00;;;20.51;39.83
9035;BME280;4552;43.422;24.592;2022-07-18T00:33:30;100505.78;;;20.20;41.21
9035;BME280;4552;43.422;24.592;2022-07-18T00:35:59;100510.84;;;20.04;42.01
9035;BME280;4552;43.422;24.592;2022-07-18T00:38:27;100503.97;;;20.20;41.55
9035;BME280;4552;43.422;24.592;2022-07-18T00:40:55;100517.03;;;20.26;41.34
9035;BME280;4552;43.422;24.592;2022-07-18T00:43:22;100507.09;;;19.88;42.66
9035;BME280;4552;43.422;24.592;2022-07-18T00:45:50;100518.13;;;19.79;43.00
9035;BME280;4552;43.422;24.592;2022-07-18T00:48:19;100521.91;;;19.74;42.57
9035;BME280;4552;43.422;24.592;2022-07-18T00:50:46;100522.88;;;19.51;43.63
9035;BME280;4552;43.422;24.592;2022-07-18T00:53:15;100526.28;;;19.33;44.24
9035;BME280;4552;43.422;24.592;2022-07-18T00:55:44;100530.34;;;19.19;44.77
9035;BME280;4552;43.422;24.592;2022-07-18T00:58:14;100504.78;;;19.16;44.76
9035;BME280;4552;43.422;24.592;2022-07-18T01:00:41;100528.31;;;19.25;44.89
9035;BME280;4552;43.422;24.592;2022-07-18T01:03:26;100526.56;;;19.24;45.11
9035;BME280;4552;43.422;24.592;2022-07-18T01:05:56;100513.47;;;19.20;44.88
9035;BME280;4552;43.422;24.592;2022-07-18T01:08:25;100534.00;;;19.16;45.42
9035;BME280;4552;43.422;24.592;2022-07-18T01:10:51;100540.78;;;19.23;45.23
9035;BME280;4552;43.422;24.592;2022-07-18T01:13:22;100534.59;;;19.01;46.09
9035;BME280;4552;43.422;24.592;2022-07-18T01:15:49;100533.59;;;19.04;46.00
9035;BME280;4552;43.422;24.592;2022-07-18T01:18:16;100543.47;;;19.00;46.55
9035;BME280;4552;43.422;24.592;2022-07-18T01:20:45;100525.00;;;18.74;46.27
9035;BME280;4552;43.422;24.592;2022-07-18T01:23:11;100536.44;;;18.99;46.74
9035;BME280;4552;43.422;24.592;2022-07-18T01:25:39;100534.66;;;19.00;45.25
9035;BME280;4552;43.422;24.592;2022-07-18T01:28:06;100552.59;;;18.93;46.46
9035;BME280;4552;43.422;24.592;2022-07-18T01:30:33;100554.16;;;19.20;44.98
9035;BME280;4552;43.422;24.592;2022-07-18T01:33:02;100514.97;;;18.82;46.59
9035;BME280;4552;43.422;24.592;2022-07-18T01:35:33;100551.06;;;18.63;48.03
9035;BME280;4552;43.422;24.592;2022-07-18T01:38:03;100558.44;;;18.55;48.28
9035;BME280;4552;43.422;24.592;2022-07-18T01:40:30;100548.94;;;18.48;48.48
9035;BME280;4552;43.422;24.592;2022-07-18T01:42:59;100549.97;;;18.19;49.55
9035;BME280;4552;43.422;24.592;2022-07-18T01:45:26;100559.84;;;18.14;50.07
9035;BME280;4552;43.422;24.592;2022-07-18T01:47:55;100549.97;;;18.19;49.66
9035;BME280;4552;43.422;24.592;2022-07-18T01:50:22;100530.03;;;17.57;51.41
9035;BME280;4552;43.422;24.592;2022-07-18T01:52:49;100555.91;;;17.75;51.71
9035;BME280;4552;43.422;24.592;2022-07-18T01:55:18;100558.91;;;17.91;51.48
9035;BME280;4552;43.422;24.592;2022-07-18T01:57:48;100557.19;;;17.62;52.11
9035;BME280;4552;43.422;24.592;2022-07-18T02:00:15;100566.50;;;17.48;52.37
9035;BME280;4552;43.422;24.592;2022-07-18T02:02:41;100565.88;;;17.67;51.97
9035;BME280;4552;43.422;24.592;2022-07-18T02:05:09;100559.34;;;17.51;52.29
9035;BME280;4552;43.422;24.592;2022-07-18T02:07:37;100546.41;;;17.41;52.59
9035;BME280;4552;43.422;24.592;2022-07-18T02:10:07;100571.03;;;17.43;52.98
9035;BME280;4552;43.422;24.592;2022-07-18T02:12:37;100558.19;;;17.60;52.16
9035;BME280;4552;43.422;24.592;2022-07-18T02:15:06;100568.31;;;17.46;52.73
9035;BME280;4552;43.422;24.592;2022-07-18T02:17:34;100565.59;;;17.49;52.08
9035;BME280;4552;43.422;24.592;2022-07-18T02:20:01;100559.59;;;17.44;52.99
9035;BME280;4552;43.422;24.592;2022-07-18T02:22:29;100572.41;;;17.28;53.19
9035;BME280;4552;43.422;24.592;2022-07-18T02:24:56;100582.25;;;17.23;53.84
9035;BME280;4552;43.422;24.592;2022-07-18T02:27:23;100582.50;;;17.45;53.31
9035;BME280;4552;43.422;24.592;2022-07-18T02:29:51;100579.06;;;17.40;53.52
9035;BME280;4552;43.422;24.592;2022-07-18T02:32:18;100568.50;;;17.10;54.67
9035;BME280;4552;43.422;24.592;2022-07-18T02:34:46;100581.47;;;17.49;53.05
9035;BME280;4552;43.422;24.592;2022-07-18T02:37:14;100582.25;;;17.52;53.11
9035;BME280;4552;43.422;24.592;2022-07-18T02:39:41;100589.41;;;17.49;53.68
9035;BME280;4552;43.422;24.592;2022-07-18T02:42:10;100601.22;;;17.37;54.23
9035;BME280;4552;43.422;24.592;2022-07-18T02:44:37;100592.97;;;17.48;53.15
9035;BME280;4552;43.422;24.592;2022-07-18T02:47:05;100602.53;;;17.52;53.38
9035;BME280;4552;43.422;24.592;2022-07-18T02:49:33;100586.31;;;17.35;54.23
9035;BME280;4552;43.422;24.592;2022-07-18T02:52:01;100607.78;;;17.53;54.05
9035;BME280;4552;43.422;24.592;2022-07-18T02:54:31;100590.44;;;17.43;54.49
9035;BME280;4552;43.422;24.592;2022-07-18T02:56:58;100600.34;;;17.37;54.64
9035;BME280;4552;43.422;24.592;2022-07-18T02:59:26;100610.03;;;17.38;54.19
9035;BME280;4552;43.422;24.592;2022-07-18T03:01:54;100620.88;;;17.28;55.03
9035;BME280;4552;43.422;24.592;2022-07-18T03:04:26;100618.59;;;17.16;55.64
9035;BME280;4552;43.422;24.592;2022-07-18T03:06:53;100619.75;;;17.08;56.13
9035;BME280;4552;43.422;24.592;2022-07-18T03:09:20;100608.28;;;17.07;55.94
9035;BME280;4552;43.422;24.592;2022-07-18T03:11:47;100621.97;;;16.92;57.20
9035;BME280;4552;43.422;24.592;2022-07-18T03:14:14;100618.63;;;16.86;57.62
9035;BME280;4552;43.422;24.592;2022-07-18T03:16:41;100629.00;;;16.92;57.36
9035;BME280;4552;43.422;24.592;2022-07-18T03:19:08;100627.41;;;16.86;57.97
9035;BME280;4552;43.422;24.592;2022-07-18T03:21:37;100627.81;;;17.03;57.94
9035;BME280;4552;43.422;24.592;2022-07-18T03:24:04;100617.16;;;17.06;57.34
9035;BME280;4552;43.422;24.592;2022-07-18T03:26:32;100640.22;;;17.01;57.99
9035;BME280;4552;43.422;24.592;2022-07-18T03:28:59;100630.59;;;16.99;57.79
9035;BME280;4552;43.422;24.592;2022-07-18T03:31:27;100625.03;;;17.08;57.26
9035;BME280;4552;43.422;24.592;2022-07-18T03:33:55;100620.34;;;17.17;56.65
9035;BME280;4552;43.422;24.592;2022-07-18T03:36:23;100633.94;;;17.05;57.07
9035;BME280;4552;43.422;24.592;2022-07-18T03:38:52;100634.41;;;17.18;56.77
9035;BME280;4552;43.422;24.592;2022-07-18T03:41:20;100635.84;;;17.29;56.84
9035;BME280;4552;43.422;24.592;2022-07-18T03:43:47;100623.38;;;17.62;55.40
9035;BME280;4552;43.422;24.592;2022-07-18T03:46:15;100632.19;;;17.33;56.36
9035;BME280;4552;43.422;24.592;2022-07-18T03:48:42;100625.91;;;17.38;57.33
9035;BME280;4552;43.422;24.592;2022-07-18T03:51:09;100631.06;;;17.42;57.27
9035;BME280;4552;43.422;24.592;2022-07-18T03:53:37;100634.66;;;17.69;56.31
9035;BME280;4552;43.422;24.592;2022-07-18T03:56:09;100632.94;;;17.68;55.13
9035;BME280;4552;43.422;24.592;2022-07-18T03:58:36;100650.91;;;17.86;55.15
9035;BME280;4552;43.422;24.592;2022-07-18T04:01:05;100654.59;;;18.08;55.57
9035;BME280;4552;43.422;24.592;2022-07-18T04:03:32;100649.25;;;18.35;54.23
9035;BME280;4552;43.422;24.592;2022-07-18T04:05:59;100651.97;;;18.34;53.32
9035;BME280;4552;43.422;24.592;2022-07-18T04:08:27;100637.31;;;18.22;51.56
9035;BME280;4552;43.422;24.592;2022-07-18T04:10:54;100650.41;;;18.27;51.24
9035;BME280;4552;43.422;24.592;2022-07-18T04:13:22;100662.34;;;18.41;52.24
9035;BME280;4552;43.422;24.592;2022-07-18T04:15:49;100652.22;;;18.77;52.66
9035;BME280;4552;43.422;24.592;2022-07-18T04:18:16;100660.50;;;18.92;51.38
9035;BME280;4552;43.422;24.592;2022-07-18T04:20:43;100646.34;;;18.92;50.65
9035;BME280;4552;43.422;24.592;2022-07-18T04:23:11;100653.44;;;19.16;50.17
9035;BME280;4552;43.422;24.592;2022-07-18T04:25:41;100657.38;;;19.52;50.08
9035;BME280;4552;43.422;24.592;2022-07-18T04:28:10;100639.91;;;20.11;48.62
9035;BME280;4552;43.422;24.592;2022-07-18T04:30:40;100670.22;;;21.68;45.67
9035;BME280;4552;43.422;24.592;2022-07-18T04:33:08;100674.63;;;22.23;43.94
9035;BME280;4552;43.422;24.592;2022-07-18T04:35:37;100668.13;;;22.28;43.56
9035;BME280;4552;43.422;24.592;2022-07-18T04:38:06;100678.31;;;23.40;40.99
9035;BME280;4552;43.422;24.592;2022-07-18T04:40:33;100673.88;;;23.56;40.56
9035;BME280;4552;43.422;24.592;2022-07-18T04:43:00;100677.38;;;24.05;39.60
9035;BME280;4552;43.422;24.592;2022-07-18T04:45:31;100685.63;;;24.76;37.89
9035;BME280;4552;43.422;24.592;2022-07-18T04:48:01;100682.28;;;24.57;37.70
9035;BME280;4552;43.422;24.592;2022-07-18T04:50:28;100687.19;;;24.65;38.00
9035;BME280;4552;43.422;24.592;2022-07-18T04:52:57;100671.66;;;25.57;36.87
9035;BME280;4552;43.422;24.592;2022-07-18T04:55:25;100685.28;;;25.40;36.22
9035;BME280;4552;43.422;24.592;2022-07-18T04:57:55;100675.81;;;24.91;37.09
9035;BME280;4552;43.422;24.592;2022-07-18T05:00:23;100679.44;;;24.90;36.70
9035;BME280;4552;43.422;24.592;2022-07-18T05:02:52;100697.44;;;24.88;37.24
9035;BME280;4552;43.422;24.592;2022-07-18T05:05:25;100683.72;;;26.19;34.83
9035;BME280;4552;43.422;24.592;2022-07-18T05:07:54;100680.50;;;26.40;33.89
9035;BME280;4552;43.422;24.592;2022-07-18T05:10:22;100676.38;;;27.26;33.50
9035;BME280;4552;43.422;24.592;2022-07-18T05:12:52;100674.50;;;27.51;32.57
9035;BME280;4552;43.422;24.592;2022-07-18T05:15:21;100678.97;;;27.27;32.63
9035;BME280;4552;43.422;24.592;2022-07-18T05:17:50;100700.91;;;26.69;33.90
9035;BME280;4552;43.422;24.592;2022-07-18T05:20:18;100689.47;;;27.17;32.67
9035;BME280;4552;43.422;24.592;2022-07-18T05:22:47;100690.50;;;26.77;33.46
9035;BME280;4552;43.422;24.592;2022-07-18T05:25:17;100694.88;;;25.85;34.17
9035;BME280;4552;43.422;24.592;2022-07-18T05:27:44;100703.03;;;25.83;35.04
9035;BME280;4552;43.422;24.592;2022-07-18T05:30:12;100695.00;;;25.27;36.05
9035;BME280;4552;43.422;24.592;2022-07-18T05:32:40;100702.97;;;24.85;35.26
9035;BME280;4552;43.422;24.592;2022-07-18T05:35:09;100706.59;;;25.27;35.37
9035;BME280;4552;43.422;24.592;2022-07-18T05:37:36;100713.59;;;25.00;35.81
9035;BME280;4552;43.422;24.592;2022-07-18T05:40:07;100712.09;;;24.96;35.42
9035;BME280;4552;43.422;24.592;2022-07-18T05:42:35;100702.69;;;25.47;35.70
9035;BME280;4552;43.422;24.592;2022-07-18T05:45:03;100716.72;;;26.21;34.29
9035;BME280;4552;43.422;24.592;2022-07-18T05:47:30;100712.97;;;25.95;34.33
9035;BME280;4552;43.422;24.592;2022-07-18T05:49:57;100715.63;;;24.67;36.57
9035;BME280;4552;43.422;24.592;2022-07-18T05:52:26;100720.69;;;25.45;35.88
9035;BME280;4552;43.422;24.592;2022-07-18T05:54:53;100717.44;;;25.68;35.14
9035;BME280;4552;43.422;24.592;2022-07-18T05:57:22;100712.81;;;24.84;35.95
9035;BME280;4552;43.422;24.592;2022-07-18T05:59:49;100709.91;;;24.73;36.41
9035;BME280;4552;43.422;24.592;2022-07-18T06:02:16;100717.38;;;24.53;36.69
9035;BME280;4552;43.422;24.592;2022-07-18T06:04:44;100713.97;;;24.65;36.99
9035;BME280;4552;43.422;24.592;2022-07-18T06:07:11;100709.66;;;24.02;37.56
9035;BME280;4552;43.422;24.592;2022-07-18T06:09:43;100691.16;;;24.44;37.39
9035;BME280;4552;43.422;24.592;2022-07-18T06:12:10;100718.31;;;24.97;36.25
9035;BME280;4552;43.422;24.592;2022-07-18T06:14:39;100701.13;;;24.56;36.77
9035;BME280;4552;43.422;24.592;2022-07-18T06:17:08;100712.56;;;24.44;36.95
9035;BME280;4552;43.422;24.592;2022-07-18T06:19:35;100716.31;;;24.71;37.28
9035;BME280;4552;43.422;24.592;2022-07-18T06:22:04;100713.91;;;24.51;37.30
9035;BME280;4552;43.422;24.592;2022-07-18T06:24:31;100708.72;;;24.63;36.85
9035;BME280;4552;43.422;24.592;2022-07-18T06:26:58;100723.16;;;24.90;36.77
9035;BME280;4552;43.422;24.592;2022-07-18T06:29:25;100725.88;;;24.59;37.28
9035;BME280;4552;43.422;24.592;2022-07-18T06:31:54;100714.34;;;24.59;37.50
9035;BME280;4552;43.422;24.592;2022-07-18T06:34:21;100723.91;;;24.63;37.63
9035;BME280;4552;43.422;24.592;2022-07-18T06:36:48;100711.84;;;24.56;37.62
9035;BME280;4552;43.422;24.592;2022-07-18T06:39:15;100725.59;;;24.03;38.41
9035;BME280;4552;43.422;24.592;2022-07-18T06:41:44;100717.31;;;24.23;37.98
9035;BME280;4552;43.422;24.592;2022-07-18T06:44:11;100722.16;;;24.17;38.20
9035;BME280;4552;43.422;24.592;2022-07-18T06:46:39;100719.72;;;24.12;39.04
9035;BME280;4552;43.422;24.592;2022-07-18T06:49:08;100708.06;;;24.29;38.12
9035;BME280;4552;43.422;24.592;2022-07-18T06:51:36;100728.75;;;23.78;39.03
9035;BME280;4552;43.422;24.592;2022-07-18T06:54:03;100710.09;;;23.61;39.26
9035;BME280;4552;43.422;24.592;2022-07-18T06:56:30;100717.63;;;23.86;39.11
9035;BME280;4552;43.422;24.592;2022-07-18T06:58:57;100721.16;;;23.86;38.73
9035;BME280;4552;43.422;24.592;2022-07-18T07:01:24;100716.50;;;23.74;38.97
9035;BME280;4552;43.422;24.592;2022-07-18T07:03:51;100716.59;;;23.88;39.32
9035;BME280;4552;43.422;24.592;2022-07-18T07:06:20;100727.06;;;23.93;39.07
9035;BME280;4552;43.422;24.592;2022-07-18T07:08:47;100705.81;;;23.74;39.49
9035;BME280;4552;43.422;24.592;2022-07-18T07:11:13;100720.81;;;23.92;38.83
9035;BME280;4552;43.422;24.592;2022-07-18T07:13:40;100712.00;;;23.59;38.42
9035;BME280;4552;43.422;24.592;2022-07-18T07:16:08;100715.59;;;23.58;39.31
9035;BME280;4552;43.422;24.592;2022-07-18T07:18:35;100719.53;;;23.84;39.22
9035;BME280;4552;43.422;24.592;2022-07-18T07:21:02;100713.75;;;23.92;38.97
9035;BME280;4552;43.422;24.592;2022-07-18T07:23:31;100694.88;;;23.95;38.56
9035;BME280;4552;43.422;24.592;2022-07-18T07:25:58;100707.31;;;23.96;38.69
9035;BME280;4552;43.422;24.592;2022-07-18T07:28:25;100707.06;;;24.16;38.48
9035;BME280;4552;43.422;24.592;2022-07-18T07:30:53;100712.22;;;24.03;38.40
9035;BME280;4552;43.422;24.592;2022-07-18T07:33:20;100697.88;;;23.88;38.70
9035;BME280;4552;43.422;24.592;2022-07-18T07:35:50;100682.53;;;24.08;38.98
9035;BME280;4552;43.422;24.592;2022-07-18T07:38:18;100695.19;;;24.51;38.02
9035;BME280;4552;43.422;24.592;2022-07-18T07:40:47;100703.06;;;24.23;37.66
9035;BME280;4552;43.422;24.592;2022-07-18T07:43:15;100705.81;;;24.21;38.67
9035;BME280;4552;43.422;24.592;2022-07-18T07:45:45;100685.59;;;24.47;37.94
9035;BME280;4552;43.422;24.592;2022-07-18T07:48:12;100702.47;;;25.08;37.10
9035;BME280;4552;43.422;24.592;2022-07-18T07:50:39;100704.66;;;25.29;36.62
9035;BME280;4552;43.422;24.592;2022-07-18T07:53:07;100697.81;;;25.54;36.12
9035;BME280;4552;43.422;24.592;2022-07-18T07:55:34;100706.03;;;25.65;35.69
9035;BME280;4552;43.422;24.592;2022-07-18T07:58:02;100710.88;;;25.30;36.69
9035;BME280;4552;43.422;24.592;2022-07-18T08:00:30;100711.94;;;25.27;36.61
9035;BME280;4552;43.422;24.592;2022-07-18T08:03:00;100703.19;;;25.54;35.58
9035;BME280;4552;43.422;24.592;2022-07-18T08:05:30;100689.69;;;24.83;36.62
9035;BME280;4552;43.422;24.592;2022-07-18T08:07:58;100708.31;;;24.40;37.61
9035;BME280;4552;43.422;24.592;2022-07-18T08:10:26;100686.13;;;24.38;37.07
9035;BME280;4552;43.422;24.592;2022-07-18T08:12:54;100713.97;;;24.65;36.55
9035;BME280;4552;43.422;24.592;2022-07-18T08:15:22;100704.66;;;24.56;37.41
9035;BME280;4552;43.422;24.592;2022-07-18T08:17:49;100708.91;;;24.60;37.40
9035;BME280;4552;43.422;24.592;2022-07-18T08:20:17;100696.25;;;24.78;37.06
9035;BME280;4552;43.422;24.592;2022-07-18T08:22:55;100705.28;;;25.34;36.86
9035;BME280;4552;43.422;24.592;2022-07-18T08:25:23;100716.59;;;25.10;36.32
9035;BME280;4552;43.422;24.592;2022-07-18T08:27:50;100714.72;;;25.26;36.95
9035;BME280;4552;43.422;24.592;2022-07-18T08:30:17;100707.38;;;25.58;36.31
9035;BME280;4552;43.422;24.592;2022-07-18T08:32:46;100709.56;;;25.79;35.50
9035;BME280;4552;43.422;24.592;2022-07-18T08:35:13;100718.13;;;25.58;36.08
9035;BME280;4552;43.422;24.592;2022-07-18T08:37:40;100702.59;;;25.34;36.38
9035;BME280;4552;43.422;24.592;2022-07-18T08:40:09;100702.69;;;25.61;36.68
9035;BME280;4552;43.422;24.592;2022-07-18T08:42:36;100707.56;;;25.69;36.77
9035;BME280;4552;43.422;24.592;2022-07-18T08:45:05;100712.44;;;26.04;36.34
9035;BME280;4552;43.422;24.592;2022-07-18T08:47:33;100706.19;;;26.18;34.76
9035;BME280;4552;43.422;24.592;2022-07-18T08:50:01;100691.88;;;25.63;35.02
9035;BME280;4552;43.422;24.592;2022-07-18T08:52:29;100683.94;;;25.47;35.54
9035;BME280;4552;43.422;24.592;2022-07-18T08:54:56;100691.19;;;25.45;35.02
9035;BME280;4552;43.422;24.592;2022-07-18T08:57:24;100691.97;;;25.47;35.36
9035;BME280;4552;43.422;24.592;2022-07-18T08:59:51;100699.16;;;25.61;35.56
9035;BME280;4552;43.422;24.592;2022-07-18T09:02:18;100683.41;;;25.83;35.22
9035;BME280;4552;43.422;24.592;2022-07-18T09:04:45;100690.50;;;25.84;35.72
9035;BME280;4552;43.422;24.592;2022-07-18T09:07:25;100689.81;;;26.08;35.38
9035;BME280;4552;43.422;24.592;2022-07-18T09:09:55;100682.59;;;26.35;35.17
9035;BME280;4552;43.422;24.592;2022-07-18T09:12:23;100656.63;;;25.95;35.13
9035;BME280;4552;43.422;24.592;2022-07-18T09:14:52;100693.75;;;25.89;34.69
9035;BME280;4552;43.422;24.592;2022-07-18T09:17:25;100691.63;;;25.94;35.12
9035;BME280;4552;43.422;24.592;2022-07-18T09:19:59;100684.34;;;25.96;34.90
9035;BME280;4552;43.422;24.592;2022-07-18T09:22:32;100688.81;;;25.95;35.04
9035;BME280;4552;43.422;24.592;2022-07-18T09:25:03;100674.47;;;25.96;35.62
9035;BME280;4552;43.422;24.592;2022-07-18T09:27:36;100690.59;;;26.23;35.22
9035;BME280;4552;43.422;24.592;2022-07-18T09:30:17;100676.97;;;26.13;35.09
9035;BME280;4552;43.422;24.592;2022-07-18T09:32:46;100683.75;;;26.45;34.46
9035;BME280;4552;43.422;24.592;2022-07-18T09:35:17;100688.47;;;26.54;34.56
9035;BME280;4552;43.422;24.592;2022-07-18T09:37:58;100673.75;;;26.86;33.78
9035;BME280;4552;43.422;24.592;2022-07-18T09:40:28;100679.34;;;26.83;33.84
9035;BME280;4552;43.422;24.592;2022-07-18T09:42:58;100672.16;;;27.22;33.29
9035;BME280;4552;43.422;24.592;2022-07-18T09:45:28;100685.75;;;27.33;33.38
9035;BME280;4552;43.422;24.592;2022-07-18T09:47:57;100678.28;;;27.24;33.23
9035;BME280;4552;43.422;24.592;2022-07-18T09:50:29;100681.09;;;27.09;32.87
9035;BME280;4552;43.422;24.592;2022-07-18T09:53:02;100686.78;;;27.17;33.07
9035;BME280;4552;43.422;24.592;2022-07-18T09:55:30;100700.22;;;27.05;32.71
9035;BME280;4552;43.422;24.592;2022-07-18T09:57:59;100672.47;;;27.04;32.88
9035;BME280;4552;43.422;24.592;2022-07-18T10:00:29;100664.81;;;27.24;32.55
9035;BME280;4552;43.422;24.592;2022-07-18T10:02:59;100657.84;;;27.08;32.13
9035;BME280;4552;43.422;24.592;2022-07-18T10:05:28;100686.34;;;26.98;33.04
9035;BME280;4552;43.422;24.592;2022-07-18T10:07:57;100677.88;;;27.17;32.75
9035;BME280;4552;43.422;24.592;2022-07-18T10:10:26;100678.97;;;27.40;32.41
9035;BME280;4552;43.422;24.592;2022-07-18T10:12:56;100662.56;;;27.68;32.60
9035;BME280;4552;43.422;24.592;2022-07-18T10:15:25;100686.47;;;27.60;32.89
9035;BME280;4552;43.422;24.592;2022-07-18T10:17:53;100669.69;;;27.44;31.94
9035;BME280;4552;43.422;24.592;2022-07-18T10:20:29;100672.09;;;27.36;32.02
9035;BME280;4552;43.422;24.592;2022-07-18T10:23:06;100670.59;;;26.67;32.54
9035;BME280;4552;43.422;24.592;2022-07-18T10:25:36;100668.50;;;26.58;32.62
9035;BME280;4552;43.422;24.592;2022-07-18T10:28:06;100659.53;;;26.72;32.74
9035;BME280;4552;43.422;24.592;2022-07-18T10:30:44;100672.34;;;26.93;32.42
9035;BME280;4552;43.422;24.592;2022-07-18T10:33:37;100665.97;;;26.69;32.69
9035;BME280;4552;43.422;24.592;2022-07-18T10:36:06;100669.97;;;26.64;32.61
9035;BME280;4552;43.422;24.592;2022-07-18T10:38:34;100669.34;;;26.46;32.58
9035;BME280;4552;43.422;24.592;2022-07-18T10:41:10;100655.59;;;26.51;32.77
9035;BME280;4552;43.422;24.592;2022-07-18T10:43:43;100641.69;;;26.44;32.89
9035;BME280;4552;43.422;24.592;2022-07-18T10:46:12;100654.94;;;26.47;32.62
9035;BME280;4552;43.422;24.592;2022-07-18T10:48:53;100661.53;;;26.56;33.01
9035;BME280;4552;43.422;24.592;2022-07-18T10:51:33;100653.75;;;27.03;33.65
9035;BME280;4552;43.422;24.592;2022-07-18T10:54:09;100624.72;;;27.33;32.29
9035;BME280;4552;43.422;24.592;2022-07-18T10:57:10;100648.44;;;27.28;32.00
9035;BME280;4552;43.422;24.592;2022-07-18T10:59:57;100645.19;;;27.36;31.33
9035;BME280;4552;43.422;24.592;2022-07-18T11:02:35;100636.53;;;27.56;32.04
9035;BME280;4552;43.422;24.592;2022-07-18T11:08:15;100623.22;;;27.17;31.95
9035;BME280;4552;43.422;24.592;2022-07-18T11:11:06;100617.84;;;27.42;31.60
9035;BME280;4552;43.422;24.592;2022-07-18T11:13:40;100619.47;;;27.32;31.59
9035;BME280;4552;43.422;24.592;2022-07-18T11:16:10;100624.09;;;27.04;31.81
9035;BME280;4552;43.422;24.592;2022-07-18T11:21:39;100608.59;;;26.95;32.14
9035;BME280;4552;43.422;24.592;2022-07-18T11:24:07;100618.59;;;26.93;32.23
9035;BME280;4552;43.422;24.592;2022-07-18T11:26:36;100614.53;;;27.26;32.23
9035;BME280;4552;43.422;24.592;2022-07-18T11:29:07;100613.09;;;27.45;31.79
9035;BME280;4552;43.422;24.592;2022-07-18T11:31:43;100603.53;;;27.41;31.50
9035;BME280;4552;43.422;24.592;2022-07-18T11:34:11;100611.06;;;27.36;31.83
9035;BME280;4552;43.422;24.592;2022-07-18T11:36:39;100609.03;;;27.40;32.08
9035;BME280;4552;43.422;24.592;2022-07-18T11:39:07;100602.38;;;27.33;31.66
9035;BME280;4552;43.422;24.592;2022-07-18T11:41:36;100588.53;;;27.50;31.93
9035;BME280;4552;43.422;24.592;2022-07-18T11:44:05;100595.00;;;27.60;31.41
9035;BME280;4552;43.422;24.592;2022-07-18T11:46:33;100607.75;;;27.33;31.54
9035;BME280;4552;43.422;24.592;2022-07-18T11:49:03;100602.97;;;27.24;31.80
9035;BME280;4552;43.422;24.592;2022-07-18T11:51:34;100587.63;;;27.13;31.91
9035;BME280;4552;43.422;24.592;2022-07-18T11:54:02;100592.03;;;27.27;31.56
9035;BME280;4552;43.422;24.592;2022-07-18T11:56:30;100577.44;;;27.54;31.25
9035;BME280;4552;43.422;24.592;2022-07-18T11:58:57;100573.22;;;27.86;30.67
9035;BME280;4552;43.422;24.592;2022-07-18T12:01:32;100575.22;;;28.08;30.73
9035;BME280;4552;43.422;24.592;2022-07-18T12:04:00;100576.38;;;27.93;31.30
9035;BME280;4552;43.422;24.592;2022-07-18T12:06:27;100580.69;;;27.95;30.57
9035;BME280;4552;43.422;24.592;2022-07-18T12:08:56;100576.03;;;27.85;31.27
9035;BME280;4552;43.422;24.592;2022-07-18T12:11:27;100560.44;;;27.90;31.03
9035;BME280;4552;43.422;24.592;2022-07-18T12:13:59;100578.25;;;28.03;31.32
9035;BME280;4552;43.422;24.592;2022-07-18T12:16:41;100568.16;;;28.18;30.51
9035;BME280;4552;43.422;24.592;2022-07-18T12:19:11;100566.47;;;28.28;31.07
9035;BME280;4552;43.422;24.592;2022-07-18T12:24:27;100576.25;;;28.18;30.95
9035;BME280;4552;43.422;24.592;2022-07-18T12:27:19;100569.34;;;28.14;30.79
9035;BME280;4552;43.422;24.592;2022-07-18T12:30:03;100573.72;;;28.04;30.50
9035;BME280;4552;43.422;24.592;2022-07-18T12:35:26;100566.06;;;27.87;30.61
9035;BME280;4552;43.422;24.592;2022-07-18T12:37:56;100557.00;;;27.88;30.52
9035;BME280;4552;43.422;24.592;2022-07-18T12:40:23;100549.22;;;27.96;30.45
9035;BME280;4552;43.422;24.592;2022-07-18T12:43:01;100537.50;;;27.97;30.74
9035;BME280;4552;43.422;24.592;2022-07-18T12:45:32;100553.47;;;28.22;30.96
9035;BME280;4552;43.422;24.592;2022-07-18T12:48:06;100534.34;;;28.03;30.77
9035;BME280;4552;43.422;24.592;2022-07-18T12:50:35;100534.09;;;28.17;30.50
9035;BME280;4552;43.422;24.592;2022-07-18T12:53:02;100554.22;;;28.58;31.03
9035;BME280;4552;43.422;24.592;2022-07-18T12:55:30;100555.38;;;28.43;30.29
9035;BME280;4552;43.422;24.592;2022-07-18T12:57:57;100556.84;;;28.36;30.27
9035;BME280;4552;43.422;24.592;2022-07-18T13:00:24;100550.06;;;28.31;30.29
9035;BME280;4552;43.422;24.592;2022-07-18T13:02:51;100545.72;;;28.41;30.47
9035;BME280;4552;43.422;24.592;2022-07-18T13:05:22;100553.38;;;28.58;30.16
9035;BME280;4552;43.422;24.592;2022-07-18T13:07:49;100559.66;;;28.35;30.68
9035;BME280;4552;43.422;24.592;2022-07-18T13:10:16;100551.25;;;28.16;30.67
9035;BME280;4552;43.422;24.592;2022-07-18T13:12:43;100544.88;;;28.17;30.37
9035;BME280;4552;43.422;24.592;2022-07-18T13:15:10;100537.50;;;28.08;30.12
9035;BME280;4552;43.422;24.592;2022-07-18T13:17:38;100534.00;;;28.18;30.17
9035;BME280;4552;43.422;24.592;2022-07-18T13:20:10;100534.69;;;27.98;30.18
9035;BME280;4552;43.422;24.592;2022-07-18T13:22:40;100547.50;;;27.95;30.30